Airfield :
LOGIN :

Register | Disclaimer

   EN    FR    IT 

 










Legend :    VFR   Marginal VFR   IFR   Intensive IFR   Very Intensive IFR
Visi :
Ceiling :
>= 8 km
>= 3000ft
5 to 8 km
1000 to 3000 ft
1500m to 5 km
500 to 1000 ft
800 to 1500m
200 to 500 ft
< 800m
< 200 ft
Symbols :   Thunderstorms  Fog  Heavy snow  Heavy precipitations  Wind > 20 kt
SIGMETs :     Misc.  Thunderstorms  Icing  Turbulence  Mountain Waves  Volcanic Ashes







- Airport Elevation : 242 ft
- IATA code : DUB


EIDW - Dublin

CURRENT METAR :
  • 180730Z 25013KT 9999 SCT012 BKN030 04/02 Q0999 NOSIG

EXPIRED METARs :
  • 180700Z 24014KT 9999 FEW012 SCT016 03/02 Q0998 NOSIG
  • 180630Z 26015KT 230V290 9999 FEW012 SCT016 03/02 Q0998 NOSIG
  • 180600Z 27016KT 9999 FEW012 SCT016 04/02 Q0998 NOSIG
  • 180530Z 27012KT 250V310 9999 FEW012 BKN016 04/02 Q0997 NOSIG
  • 180500Z 28013KT 9999 FEW014 BKN020 04/02 Q0997 NOSIG

TAF TAF EIDW
Valid from the 18 at 06:00 until the 19 at 06:00 UTC


180500Z 1806/1906 27015KT 9999 SCT012 BKN025
TEMPO 1806/1810 27016G27KT
BECMG 1810/1813 28018G28KT
TEMPO 1808/1821 7000 -SHRA SCT018CB
BECMG 1818/1821 26013KT
PROB30
TEMPO 1821/1906 5000 -SHRASN SCT018CB
BECMG 1903/1905 25016G26KT
No reported NOTAMs for that airfield.



MET'MAP, your aeronautical weather chart ! - Copyright ORBIFLY December 2007 - Disclaimer

ORBIFLY MET'MAP TEAM :

Programming & Development : Alexandra Zaïnal
Concept & Development : Baudouin d'Aumeries
Co-Development & Prog : Marc-Olivier Méhu
Technical & hardware support : Manuel Goepfert

Contact : metmap@orbifly.com




SOURCES & CREDITS :

   NOAA